createdAt,value
2023-04-10T04:57:39.573Z,7.21
2023-04-10T05:01:14.256Z,7.29
2023-04-10T05:04:47.602Z,7.33
2023-04-10T05:19:13.773Z,8.07
2023-04-10T05:21:40.650Z,8.21
2023-04-10T05:24:33.228Z,8.35
2023-04-10T05:27:02.760Z,8.46
2023-04-10T05:29:57.117Z,8.66
2023-04-10T05:59:27.120Z,10.54
2023-04-10T06:14:16.770Z,14.31
2023-04-10T08:41:45.686Z,23.01
2023-04-10T10:34:40.060Z,27.22
2023-04-10T10:38:06.940Z,26.61
2023-04-10T11:06:08.604Z,29.01
2023-04-10T11:09:46.934Z,28.04
2023-04-10T11:13:17.596Z,27.23
2023-04-10T11:16:17.117Z,27.85
2023-04-10T11:20:08.268Z,28.30
2023-04-10T11:24:16.342Z,26.97
2023-04-10T11:27:40.588Z,26.35
2023-04-10T11:31:23.514Z,25.56
2023-04-10T11:35:09.568Z,24.91
2023-04-10T11:39:16.510Z,26.56
2023-04-10T11:42:24.183Z,27.87
2023-04-10T11:46:24.819Z,27.45
2023-04-10T11:49:56.019Z,26.49
2023-04-10T11:53:36.014Z,25.41
2023-04-10T11:57:13.150Z,24.45
2023-04-10T12:01:04.096Z,23.83
2023-04-10T12:05:21.307Z,23.72
2023-04-10T12:08:29.437Z,25.29
2023-04-10T12:11:21.916Z,27.17
2023-04-10T12:14:59.170Z,28.04
2023-04-10T12:18:35.018Z,27.47
2023-04-10T12:22:28.727Z,26.54
2023-04-10T12:25:48.132Z,25.93
2023-04-10T13:00:09.293Z,22.69
2023-04-10T13:03:06.576Z,22.46
2023-04-10T13:06:27.439Z,21.97
2023-04-10T13:10:01.107Z,21.26
2023-04-10T13:13:42.068Z,20.27
2023-04-10T13:17:25.416Z,19.64
2023-04-10T13:21:25.346Z,19.36
2023-04-10T13:24:39.919Z,19.03
2023-04-10T13:28:45.425Z,18.70
2023-04-10T13:31:57.354Z,18.45
2023-04-10T13:35:40.462Z,17.83
2023-04-10T13:39:12.027Z,17.14
2023-04-10T13:42:51.472Z,16.48
2023-04-10T13:46:31.167Z,16.05
2023-04-10T13:50:08.448Z,15.68
2023-04-10T13:52:36.208Z,15.47
2023-04-10T13:55:06.493Z,15.30
2023-04-10T13:57:34.846Z,15.20
2023-04-10T14:00:04.274Z,15.16
2023-04-10T14:02:34.170Z,15.18
2023-04-10T14:05:15.369Z,15.22
2023-04-10T14:08:52.428Z,15.35
2023-04-10T14:12:51.616Z,15.51
2023-04-10T14:16:09.394Z,15.65
2023-04-10T14:18:37.637Z,15.81
2023-04-10T14:21:05.738Z,15.98
2023-04-10T14:23:33.473Z,16.18
2023-04-10T14:26:01.454Z,16.35
2023-04-10T14:28:29.295Z,16.44
2023-04-10T14:30:57.077Z,16.57
2023-04-10T14:33:24.965Z,16.65
2023-04-10T14:35:53.592Z,16.74
2023-04-10T14:40:09.955Z,17.04
2023-04-10T14:43:48.751Z,18.35
2023-04-10T14:47:25.918Z,20.80
2023-04-10T14:51:05.534Z,20.82
2023-04-10T14:54:43.331Z,20.33
2023-04-10T14:58:20.005Z,20.31
2023-04-10T15:01:57.957Z,20.56
2023-04-10T15:06:00.883Z,20.54
2023-04-10T15:09:15.316Z,20.13
2023-04-10T15:12:55.327Z,19.66
2023-04-10T15:16:35.311Z,20.10
2023-04-10T15:19:03.199Z,21.37
2023-04-10T15:25:57.878Z,26.67
2023-04-10T15:28:28.226Z,27.80
2023-04-10T15:32:51.054Z,29.23
2023-04-10T15:36:32.408Z,30.00
2023-04-10T15:40:10.688Z,30.52
2023-04-10T15:43:48.625Z,30.43
2023-04-10T15:47:26.889Z,30.07
2023-04-10T15:49:57.220Z,29.81
2023-04-10T15:52:25.350Z,29.19
2023-04-10T15:54:53.095Z,28.58
2023-04-10T15:57:20.941Z,28.35
2023-04-10T15:59:52.789Z,28.32
2023-04-10T16:02:21.111Z,28.20
2023-04-10T16:05:16.289Z,27.90
2023-04-10T16:07:44.166Z,28.03
2023-04-10T16:10:11.962Z,27.88
2023-04-10T16:15:17.123Z,26.59
2023-04-10T16:29:23.437Z,24.94
2023-04-10T16:32:10.798Z,24.57
2023-04-10T16:36:09.171Z,23.18
2023-04-10T16:39:26.296Z,21.70
2023-04-10T16:43:24.873Z,20.27
2023-04-10T16:46:44.392Z,19.47
2023-04-10T16:50:25.610Z,18.75
2023-04-10T16:54:03.925Z,18.17
2023-04-10T16:58:01.763Z,17.68
2023-04-10T17:01:45.761Z,17.29
2023-04-10T17:04:58.270Z,16.99
2023-04-10T17:08:36.899Z,16.70
2023-04-10T17:12:18.676Z,16.44
2023-04-10T17:15:55.382Z,16.18
2023-04-10T17:30:02.139Z,15.42
2023-04-10T17:32:30.491Z,15.31
2023-04-10T17:34:58.444Z,15.15
2023-04-10T17:37:26.525Z,14.98
2023-04-10T17:39:54.722Z,14.81
2023-04-10T17:42:23.347Z,14.70
2023-04-10T17:44:51.409Z,14.60
2023-04-10T17:47:19.169Z,14.50
2023-04-10T17:49:46.965Z,14.41
2023-04-10T17:52:14.824Z,14.31
2023-04-10T17:54:42.824Z,14.18
2023-04-10T17:57:10.644Z,14.04
2023-04-10T17:59:39.512Z,13.93
2023-04-10T18:02:07.767Z,13.85
2023-04-10T18:04:35.932Z,13.76
2023-04-10T18:07:04.663Z,13.65
2023-04-10T18:09:32.630Z,13.53
2023-04-10T18:12:01.611Z,13.43
2023-04-10T18:14:29.380Z,13.38
2023-04-10T18:16:57.585Z,13.34
2023-04-10T18:19:25.590Z,13.31
2023-04-10T18:21:53.691Z,13.29
2023-04-10T18:24:21.844Z,13.27
2023-04-10T18:26:50.118Z,13.21
2023-04-10T18:29:17.896Z,13.16
2023-04-10T18:31:46.966Z,13.12
2023-04-10T18:34:15.164Z,13.06
2023-04-10T18:36:43.262Z,12.99
2023-04-10T18:39:11.438Z,12.89
2023-04-10T18:41:39.614Z,12.79
2023-04-10T18:44:11.384Z,12.73
2023-04-10T18:46:42.722Z,12.65
2023-04-10T18:49:12.564Z,12.56
2023-04-10T18:51:41.905Z,12.50
2023-04-10T18:54:10.021Z,12.46
2023-04-10T18:56:38.883Z,12.40
2023-04-10T18:59:08.219Z,12.36
2023-04-10T19:01:36.760Z,12.34
2023-04-10T19:04:04.764Z,12.31
2023-04-10T19:07:05.128Z,12.31
2023-04-10T19:09:33.841Z,12.30
2023-04-10T19:12:02.366Z,12.26
2023-04-10T19:14:30.210Z,12.21
2023-04-10T19:16:58.353Z,12.14
2023-04-10T19:19:26.183Z,12.09
2023-04-10T19:21:55.095Z,12.10
2023-04-10T19:24:23.151Z,12.13
2023-04-10T19:26:53.612Z,12.14
2023-04-10T19:29:22.435Z,12.13
2023-04-10T19:31:51.294Z,12.09
2023-04-10T19:34:19.605Z,12.05
2023-04-10T19:36:47.765Z,12.02
2023-04-10T19:39:16.412Z,11.96
2023-04-10T19:41:44.167Z,11.90
2023-04-10T19:44:12.233Z,11.88
2023-04-10T19:46:40.465Z,11.88
2023-04-10T19:49:08.254Z,11.87
2023-04-10T19:51:36.370Z,11.88
2023-04-10T19:54:05.642Z,11.88
2023-04-10T19:56:34.927Z,11.83
2023-04-10T19:59:03.002Z,11.72
2023-04-10T20:01:31.061Z,11.57
2023-04-10T20:03:59.483Z,11.45
2023-04-10T20:06:27.494Z,11.32
2023-04-10T20:08:55.731Z,11.21
2023-04-10T20:11:24.938Z,11.15
2023-04-10T20:13:53.027Z,11.14
2023-04-10T20:16:21.017Z,11.08
2023-04-10T20:18:48.803Z,11.06
2023-04-10T20:21:16.680Z,11.00
2023-04-10T20:23:44.426Z,10.93
2023-04-10T20:26:13.300Z,10.86
2023-04-10T20:28:41.075Z,10.77
2023-04-10T20:31:10.875Z,10.71
2023-04-10T20:33:38.696Z,10.62
2023-04-10T20:36:06.910Z,10.56
2023-04-10T20:38:34.742Z,10.52
2023-04-10T20:41:03.083Z,10.46
2023-04-10T20:43:31.108Z,10.40
2023-04-10T20:46:06.775Z,10.31
2023-04-10T20:48:38.291Z,10.23
2023-04-10T20:51:06.442Z,10.18
2023-04-10T20:53:34.170Z,10.16
2023-04-10T20:56:03.575Z,10.11
2023-04-10T20:58:33.342Z,10.06
2023-04-10T21:01:01.274Z,10.06
2023-04-10T21:03:30.242Z,10.01
2023-04-10T21:05:58.031Z,9.97
2023-04-10T21:08:25.931Z,9.91
2023-04-10T21:10:53.654Z,9.85
2023-04-10T21:13:21.484Z,9.80
2023-04-10T21:15:49.626Z,9.76
2023-04-10T21:18:17.447Z,9.70
2023-04-10T21:20:45.240Z,9.63
2023-04-10T21:23:13.043Z,9.56
2023-04-10T21:25:40.696Z,9.52
2023-04-10T21:28:08.427Z,9.51
2023-04-10T21:30:37.020Z,9.50
2023-04-10T21:33:05.902Z,9.44
2023-04-10T21:35:33.637Z,9.37
2023-04-10T21:38:03.911Z,9.36
2023-04-10T21:40:34.374Z,9.31
2023-04-10T21:43:02.852Z,9.28
2023-04-10T21:45:31.546Z,9.22
2023-04-10T21:48:00.442Z,9.17
2023-04-10T21:50:28.795Z,9.13
2023-04-10T21:52:56.689Z,9.07
2023-04-10T21:55:24.551Z,9.01
2023-04-10T21:57:52.271Z,8.99
2023-04-10T22:00:22.538Z,8.93
2023-04-10T22:02:51.032Z,8.90
2023-04-10T22:05:19.117Z,8.84
2023-04-10T22:07:49.196Z,8.78
2023-04-10T22:10:16.973Z,8.70
2023-04-10T22:12:47.631Z,8.67
2023-04-10T22:15:17.230Z,8.62
2023-04-10T22:17:44.886Z,8.57
2023-04-10T22:20:12.738Z,8.53
2023-04-10T22:22:40.715Z,8.50
2023-04-10T22:25:08.519Z,8.49
2023-04-10T22:27:36.222Z,8.48
2023-04-10T22:30:04.755Z,8.45
2023-04-10T22:32:32.598Z,8.42
2023-04-10T22:35:00.720Z,8.35
2023-04-10T22:37:28.488Z,8.28
2023-04-10T22:39:56.376Z,8.23
2023-04-10T22:42:24.217Z,8.18
2023-04-10T22:44:52.101Z,8.14
2023-04-10T22:47:19.944Z,8.11
2023-04-10T22:49:47.641Z,8.09
2023-04-10T22:52:16.416Z,8.02
2023-04-10T22:54:44.156Z,7.96
2023-04-10T22:57:12.008Z,7.96
2023-04-10T22:59:39.792Z,7.97
2023-04-10T23:02:09.768Z,7.95
2023-04-10T23:04:37.767Z,7.93
2023-04-10T23:07:05.802Z,7.92
2023-04-10T23:09:33.583Z,7.90
2023-04-10T23:12:01.901Z,7.87
2023-04-10T23:14:29.622Z,7.78
2023-04-10T23:16:57.463Z,7.69
2023-04-10T23:19:25.285Z,7.64
2023-04-10T23:21:53.776Z,7.62
2023-04-10T23:24:21.544Z,7.59
2023-04-10T23:26:49.259Z,7.57
2023-04-10T23:29:17.211Z,7.55
2023-04-10T23:31:45.024Z,7.54
2023-04-10T23:34:13.061Z,7.50
2023-04-10T23:36:40.822Z,7.46
2023-04-10T23:39:08.752Z,7.41
2023-04-10T23:41:36.554Z,7.34
2023-04-10T23:44:04.380Z,7.29
2023-04-10T23:46:32.189Z,7.23
2023-04-10T23:49:00.530Z,7.22
2023-04-10T23:51:28.294Z,7.21
2023-04-10T23:53:55.988Z,7.20
2023-04-10T23:56:29.159Z,7.16
2023-04-10T23:58:57.156Z,7.12
